Time;durP1;ratioP1;P1;durP2;ratioP2;P2;SDS_P1;SDS_P2;PMS_P1;PMS_P2;Temp;Humidity;BMP_temperature;BMP_pressure;BME280_temperature;BME280_humidity;BME280_pressure;Samples;Min_cycle;Max_cycle;Signal;HPM_P1;HPM_P2
2022/08/29 00:00:08;;;;;;;1.40;0.90;;;;;;;;;;5047650;28;22073;-69
2022/08/29 00:02:46;;;;;;;1.05;0.73;;;;;;;;;;5048648;28;20064;-68
2022/08/29 00:05:19;;;;;;;1.58;1.02;;;;;;;;;;5050323;28;20381;-68
2022/08/29 00:07:52;;;;;;;1.90;1.27;;;;;;;;;;5047636;28;20052;-68
2022/08/29 00:10:21;;;;;;;1.67;1.40;;;;;;;;;;5046113;28;20049;-69
2022/08/29 00:12:50;;;;;;;5.30;1.45;;;;;;;;;;5043868;28;20053;-69
2022/08/29 00:15:18;;;;;;;1.05;0.88;;;;;;;;;;5042517;28;20585;-68
2022/08/29 00:17:48;;;;;;;1.48;0.95;;;;;;;;;;5048560;28;20060;-68
2022/08/29 00:20:18;;;;;;;0.98;0.70;;;;;;;;;;5049986;28;20471;-68
2022/08/29 00:22:46;;;;;;;2.08;1.10;;;;;;;;;;5050248;28;20067;-68
2022/08/29 00:25:15;;;;;;;1.23;0.77;;;;;;;;;;5049378;28;20043;-68
2022/08/29 00:27:44;;;;;;;0.98;0.65;;;;;;;;;;5050968;28;20463;-68
2022/08/29 00:30:18;;;;;;;1.88;1.23;;;;;;;;;;5049086;28;20052;-68
2022/08/29 00:32:46;;;;;;;1.98;1.17;;;;;;;;;;5049962;28;20091;-69
2022/08/29 00:35:17;;;;;;;1.65;0.70;;;;;;;;;;5050399;28;20520;-68
2022/08/29 00:37:46;;;;;;;1.05;0.85;;;;;;;;;;5048645;28;20550;-68
2022/08/29 00:40:19;;;;;;;1.08;0.98;;;;;;;;;;5050235;28;20120;-68
2022/08/29 00:42:47;;;;;;;0.93;0.85;;;;;;;;;;5050110;28;20056;-68
2022/08/29 00:45:17;;;;;;;2.03;0.80;;;;;;;;;;5049564;28;20053;-68
2022/08/29 00:47:48;;;;;;;1.05;0.75;;;;;;;;;;5049468;28;20049;-68
2022/08/29 00:50:21;;;;;;;1.42;0.88;;;;;;;;;;5049428;28;20049;-68
2022/08/29 00:52:50;;;;;;;1.65;0.90;;;;;;;;;;5050318;28;20055;-68
2022/08/29 00:55:21;;;;;;;1.33;0.65;;;;;;;;;;5050358;28;20060;-68
2022/08/29 00:57:52;;;;;;;0.57;0.57;;;;;;;;;;5050970;28;20052;-68
2022/08/29 01:00:24;;;;;;;2.00;0.98;;;;;;;;;;5043195;28;20195;-68
2022/08/29 01:02:53;;;;;;;0.93;0.90;;;;;;;;;;5040642;28;20053;-68
2022/08/29 01:05:23;;;;;;;1.73;0.98;;;;;;;;;;5049511;28;20106;-67
2022/08/29 01:07:52;;;;;;;0.85;0.40;;;;;;;;;;5046251;28;20087;-68
2022/08/29 01:13:08;;;;;;;1.48;0.75;;;;;;;;;;5044811;28;20557;-68
2022/08/29 01:15:37;;;;;;;1.27;1.00;;;;;;;;;;5047965;28;20144;-67
2022/08/29 01:18:06;;;;;;;1.77;1.17;;;;;;;;;;5048999;28;20055;-68
2022/08/29 01:20:39;;;;;;;0.70;0.60;;;;;;;;;;5047624;28;20413;-68
2022/08/29 01:23:11;;;;;;;0.85;0.43;;;;;;;;;;5049470;28;20068;-69
2022/08/29 01:25:45;;;;;;;1.48;1.13;;;;;;;;;;5045888;28;20051;-69
2022/08/29 01:28:16;;;;;;;0.50;0.50;;;;;;;;;;5046324;28;20056;-68
2022/08/29 01:30:58;;;;;;;0.75;0.50;;;;;;;;;;5048381;28;20098;-68
2022/08/29 01:33:28;;;;;;;0.40;0.38;;;;;;;;;;5047337;28;20409;-68
2022/08/29 01:35:56;;;;;;;0.73;0.63;;;;;;;;;;5043246;28;20497;-70
2022/08/29 01:38:27;;;;;;;0.68;0.55;;;;;;;;;;5047008;28;20049;-68
2022/08/29 01:40:58;;;;;;;2.63;0.90;;;;;;;;;;5048333;28;20111;-67
2022/08/29 01:43:28;;;;;;;1.08;0.57;;;;;;;;;;5047477;28;20393;-68
2022/08/29 01:45:57;;;;;;;2.30;0.95;;;;;;;;;;5047231;28;20488;-68
2022/08/29 01:48:26;;;;;;;0.73;0.68;;;;;;;;;;5046614;28;20110;-68
2022/08/29 01:50:54;;;;;;;1.33;0.70;;;;;;;;;;5048010;28;20057;-68
2022/08/29 01:53:23;;;;;;;0.55;0.50;;;;;;;;;;5045080;28;20078;-68
2022/08/29 01:55:51;;;;;;;0.52;0.50;;;;;;;;;;5045816;28;20067;-68
2022/08/29 01:58:21;;;;;;;1.70;0.80;;;;;;;;;;5040390;28;20420;-68
2022/08/29 02:00:50;;;;;;;0.32;0.32;;;;;;;;;;5046098;28;20186;-68
2022/08/29 02:03:18;;;;;;;1.80;1.00;;;;;;;;;;5047285;28;20501;-68
2022/08/29 02:05:47;;;;;;;0.55;0.43;;;;;;;;;;5049614;28;20060;-68
2022/08/29 02:08:15;;;;;;;7.75;0.50;;;;;;;;;;5047437;28;20053;-68
2022/08/29 02:10:44;;;;;;;1.65;1.05;;;;;;;;;;5048878;28;20041;-69
2022/08/29 02:13:13;;;;;;;0.73;0.40;;;;;;;;;;5043692;28;20094;-69
2022/08/29 02:15:43;;;;;;;1.58;1.23;;;;;;;;;;5048066;28;20061;-70
2022/08/29 02:18:11;;;;;;;1.42;0.60;;;;;;;;;;5044573;28;20103;-67
2022/08/29 02:20:40;;;;;;;0.77;0.38;;;;;;;;;;5046450;28;20045;-68
2022/08/29 02:23:09;;;;;;;0.95;0.73;;;;;;;;;;5046233;28;20055;-68
2022/08/29 02:25:57;;;;;;;0.40;0.40;;;;;;;;;;5049100;28;20484;-68
2022/08/29 02:28:26;;;;;;;1.30;0.55;;;;;;;;;;5045099;28;20049;-67
2022/08/29 02:30:56;;;;;;;0.45;0.45;;;;;;;;;;5046959;28;20041;-68
2022/08/29 02:33:25;;;;;;;1.45;0.50;;;;;;;;;;5048081;28;20304;-68
2022/08/29 02:35:56;;;;;;;1.20;1.08;;;;;;;;;;5048533;28;20544;-67
2022/08/29 02:38:25;;;;;;;0.93;0.60;;;;;;;;;;5047190;28;20389;-67
2022/08/29 02:40:54;;;;;;;0.93;0.57;;;;;;;;;;5048318;28;20049;-68
2022/08/29 02:43:23;;;;;;;0.63;0.52;;;;;;;;;;5037932;28;20507;-67
2022/08/29 02:45:51;;;;;;;0.82;0.47;;;;;;;;;;5046956;28;20041;-68
2022/08/29 02:48:22;;;;;;;0.47;0.40;;;;;;;;;;5042556;28;20055;-67
2022/08/29 02:50:52;;;;;;;0.70;0.52;;;;;;;;;;5048076;28;20055;-67
2022/08/29 02:53:23;;;;;;;0.85;0.75;;;;;;;;;;5049388;28;20435;-67
2022/08/29 02:55:52;;;;;;;1.02;0.70;;;;;;;;;;5051779;28;20044;-68
2022/08/29 02:58:21;;;;;;;0.40;0.40;;;;;;;;;;5043365;28;20045;-68
2022/08/29 03:00:49;;;;;;;1.23;0.73;;;;;;;;;;5049126;28;20052;-67
2022/08/29 03:03:19;;;;;;;0.63;0.57;;;;;;;;;;5045779;28;20140;-67
2022/08/29 03:05:49;;;;;;;1.08;0.60;;;;;;;;;;5051908;28;20060;-67
2022/08/29 03:08:18;;;;;;;0.28;0.28;;;;;;;;;;5048342;28;20095;-68
2022/08/29 03:10:47;;;;;;;0.20;0.20;;;;;;;;;;5048297;28;20051;-68
2022/08/29 03:13:15;;;;;;;0.93;0.50;;;;;;;;;;5050066;28;20049;-67
2022/08/29 03:15:44;;;;;;;2.63;0.55;;;;;;;;;;5048165;28;20085;-68
2022/08/29 03:18:13;;;;;;;1.85;0.80;;;;;;;;;;5047757;28;20048;-69
2022/08/29 03:20:42;;;;;;;0.30;0.30;;;;;;;;;;5050749;28;20056;-67
2022/08/29 03:23:12;;;;;;;0.50;0.50;;;;;;;;;;5047907;28;20049;-70
2022/08/29 03:25:41;;;;;;;1.17;0.70;;;;;;;;;;5047463;28;20053;-68
2022/08/29 03:28:09;;;;;;;1.33;0.63;;;;;;;;;;5045700;28;20052;-67
2022/08/29 03:30:38;;;;;;;0.60;0.35;;;;;;;;;;5048923;28;20507;-67
2022/08/29 03:33:07;;;;;;;1.20;0.85;;;;;;;;;;5051022;28;20523;-67
2022/08/29 03:35:39;;;;;;;0.20;0.20;;;;;;;;;;5049687;28;20088;-69
2022/08/29 03:38:08;;;;;;;0.68;0.30;;;;;;;;;;5049820;28;20045;-67
2022/08/29 03:40:37;;;;;;;1.65;0.65;;;;;;;;;;5047616;28;20049;-67
2022/08/29 03:43:06;;;;;;;3.17;0.45;;;;;;;;;;5049909;28;20080;-67
2022/08/29 03:45:35;;;;;;;4.28;0.45;;;;;;;;;;5049540;28;20049;-67
2022/08/29 03:48:05;;;;;;;0.95;0.45;;;;;;;;;;5050086;28;20045;-68
2022/08/29 03:50:34;;;;;;;0.38;0.38;;;;;;;;;;5049920;28;20056;-67
2022/08/29 03:53:02;;;;;;;0.13;0.13;;;;;;;;;;5047619;28;20119;-68
2022/08/29 03:55:31;;;;;;;1.45;0.47;;;;;;;;;;5050694;28;20102;-67
2022/08/29 03:58:01;;;;;;;0.30;0.30;;;;;;;;;;5048572;28;20180;-67
2022/08/29 04:00:29;;;;;;;0.40;0.40;;;;;;;;;;5046053;28;20099;-67
2022/08/29 04:02:58;;;;;;;0.68;0.32;;;;;;;;;;5051261;28;20099;-67
2022/08/29 04:05:26;;;;;;;0.30;0.30;;;;;;;;;;5050701;28;20045;-67
2022/08/29 04:07:56;;;;;;;0.40;0.25;;;;;;;;;;5048686;28;20056;-67
2022/08/29 04:10:26;;;;;;;0.65;0.38;;;;;;;;;;5048521;28;20080;-68
2022/08/29 04:12:54;;;;;;;2.33;0.50;;;;;;;;;;5048078;28;20103;-67
2022/08/29 04:15:25;;;;;;;0.38;0.28;;;;;;;;;;5047641;28;20496;-67
2022/08/29 04:17:54;;;;;;;0.45;0.43;;;;;;;;;;5048805;28;20049;-67
2022/08/29 04:20:23;;;;;;;0.35;0.35;;;;;;;;;;5049930;28;20061;-67
2022/08/29 04:22:54;;;;;;;0.98;0.50;;;;;;;;;;5050509;28;20045;-67
2022/08/29 04:25:23;;;;;;;0.28;0.28;;;;;;;;;;5049734;28;20564;-67
2022/08/29 04:27:52;;;;;;;0.68;0.50;;;;;;;;;;5046702;28;20096;-67
2022/08/29 04:30:22;;;;;;;1.35;0.77;;;;;;;;;;5048698;28;20480;-68
2022/08/29 04:32:52;;;;;;;0.30;0.22;;;;;;;;;;5042255;28;20044;-67
2022/08/29 04:35:21;;;;;;;0.20;0.20;;;;;;;;;;5049372;28;20064;-67
2022/08/29 04:37:49;;;;;;;2.63;0.50;;;;;;;;;;5038621;28;20056;-68
2022/08/29 04:40:20;;;;;;;0.30;0.30;;;;;;;;;;5049295;28;20126;-67
2022/08/29 04:42:49;;;;;;;0.17;0.17;;;;;;;;;;5050846;28;20179;-67
2022/08/29 04:45:19;;;;;;;0.57;0.35;;;;;;;;;;5047334;28;20049;-67
2022/08/29 04:47:47;;;;;;;1.05;0.60;;;;;;;;;;5046569;28;20305;-67
2022/08/29 04:50:18;;;;;;;0.57;0.52;;;;;;;;;;5048878;28;20397;-67
2022/08/29 04:52:47;;;;;;;0.32;0.28;;;;;;;;;;5049673;28;20091;-68
2022/08/29 04:55:17;;;;;;;0.47;0.40;;;;;;;;;;5043726;28;20080;-67
2022/08/29 04:57:50;;;;;;;0.52;0.38;;;;;;;;;;5046021;28;20041;-68
2022/08/29 05:00:22;;;;;;;0.80;0.75;;;;;;;;;;5043781;28;20041;-67
2022/08/29 05:02:50;;;;;;;0.73;0.73;;;;;;;;;;5048459;28;20114;-68
2022/08/29 05:05:21;;;;;;;0.95;0.47;;;;;;;;;;5046888;28;20128;-68
2022/08/29 05:07:49;;;;;;;0.90;0.40;;;;;;;;;;5045582;28;20103;-68
2022/08/29 05:10:19;;;;;;;0.65;0.63;;;;;;;;;;5046815;28;20044;-68
2022/08/29 05:12:48;;;;;;;0.30;0.30;;;;;;;;;;5046323;28;20063;-69
2022/08/29 05:15:17;;;;;;;0.75;0.30;;;;;;;;;;5042842;28;21195;-68
2022/08/29 05:17:46;;;;;;;0.10;0.10;;;;;;;;;;5045637;28;20085;-67
2022/08/29 05:20:15;;;;;;;0.50;0.30;;;;;;;;;;5048237;28;20432;-66
2022/08/29 05:22:47;;;;;;;0.55;0.30;;;;;;;;;;5044744;28;20049;-67
2022/08/29 05:25:15;;;;;;;0.55;0.20;;;;;;;;;;5042663;28;20133;-67
2022/08/29 05:27:46;;;;;;;0.70;0.38;;;;;;;;;;5044016;28;20053;-67
2022/08/29 05:30:15;;;;;;;0.77;0.60;;;;;;;;;;5049832;28;20041;-66
2022/08/29 05:32:59;;;;;;;0.30;0.30;;;;;;;;;;5050365;28;20044;-67
2022/08/29 05:35:27;;;;;;;0.38;0.38;;;;;;;;;;5046658;28;20068;-68
2022/08/29 05:37:57;;;;;;;0.17;0.17;;;;;;;;;;5043137;28;20064;-67
2022/08/29 05:40:26;;;;;;;0.65;0.60;;;;;;;;;;5045644;28;20052;-67
2022/08/29 05:42:54;;;;;;;0.22;0.22;;;;;;;;;;5044011;28;20052;-68
2022/08/29 05:45:23;;;;;;;0.22;0.22;;;;;;;;;;5045323;28;20079;-66
2022/08/29 05:47:51;;;;;;;0.08;0.08;;;;;;;;;;5045789;28;20102;-67
2022/08/29 05:50:20;;;;;;;0.45;0.38;;;;;;;;;;5046873;28;20076;-66
2022/08/29 05:52:48;;;;;;;0.13;0.13;;;;;;;;;;5047774;28;20566;-67
2022/08/29 05:55:18;;;;;;;0.38;0.25;;;;;;;;;;5049610;28;20072;-68
2022/08/29 05:57:48;;;;;;;0.57;0.55;;;;;;;;;;5042079;28;20447;-68
2022/08/29 06:00:17;;;;;;;0.63;0.22;;;;;;;;;;5046856;28;20118;-69
2022/08/29 06:02:46;;;;;;;0.80;0.65;;;;;;;;;;5047459;28;20115;-68
2022/08/29 06:05:18;;;;;;;0.35;0.35;;;;;;;;;;5047505;28;20409;-67
2022/08/29 06:07:47;;;;;;;0.77;0.50;;;;;;;;;;5047331;28;20128;-66
2022/08/29 06:10:15;;;;;;;0.98;0.77;;;;;;;;;;5046561;28;20052;-67
2022/08/29 06:12:45;;;;;;;0.22;0.20;;;;;;;;;;5047181;28;20118;-68
2022/08/29 06:15:13;;;;;;;0.20;0.15;;;;;;;;;;5048666;28;20103;-67
2022/08/29 06:17:42;;;;;;;2.08;0.77;;;;;;;;;;5049313;28;20106;-66
2022/08/29 06:20:11;;;;;;;1.02;0.65;;;;;;;;;;5050069;28;20086;-67
2022/08/29 06:22:40;;;;;;;0.40;0.40;;;;;;;;;;5050791;28;20125;-67
2022/08/29 06:25:09;;;;;;;0.50;0.40;;;;;;;;;;5050724;28;20134;-67
2022/08/29 06:27:59;;;;;;;0.52;0.43;;;;;;;;;;5049669;28;20132;-67
2022/08/29 06:30:27;;;;;;;1.45;0.50;;;;;;;;;;5048234;28;20045;-66
2022/08/29 06:32:57;;;;;;;0.50;0.22;;;;;;;;;;5044261;28;20136;-67
2022/08/29 06:35:25;;;;;;;0.55;0.45;;;;;;;;;;5045741;28;20123;-67
2022/08/29 06:37:54;;;;;;;0.40;0.40;;;;;;;;;;5046207;28;20140;-65
2022/08/29 06:40:22;;;;;;;1.02;0.63;;;;;;;;;;5049743;28;20437;-67
2022/08/29 06:42:51;;;;;;;1.00;0.52;;;;;;;;;;5044882;28;20404;-67
2022/08/29 06:45:21;;;;;;;0.68;0.63;;;;;;;;;;5045607;28;20037;-67
2022/08/29 06:47:49;;;;;;;1.13;0.63;;;;;;;;;;5044526;28;20520;-67
2022/08/29 06:50:18;;;;;;;0.90;0.57;;;;;;;;;;5049049;28;20112;-68
2022/08/29 06:52:46;;;;;;;0.77;0.77;;;;;;;;;;5043594;28;20045;-67
2022/08/29 06:55:16;;;;;;;0.55;0.25;;;;;;;;;;5043334;28;20489;-67
2022/08/29 06:57:51;;;;;;;1.55;1.38;;;;;;;;;;5044576;28;20124;-67
2022/08/29 07:00:22;;;;;;;1.83;0.70;;;;;;;;;;5043026;28;20138;-68
2022/08/29 07:02:51;;;;;;;0.57;0.30;;;;;;;;;;5043709;28;20075;-67
2022/08/29 07:05:21;;;;;;;2.13;0.95;;;;;;;;;;5039867;28;20120;-67
2022/08/29 07:07:49;;;;;;;0.70;0.65;;;;;;;;;;5046094;28;20116;-68
2022/08/29 07:10:18;;;;;;;2.60;1.30;;;;;;;;;;5049374;28;20053;-68
2022/08/29 07:12:50;;;;;;;0.40;0.40;;;;;;;;;;5044230;28;20072;-68
2022/08/29 07:15:19;;;;;;;1.50;0.60;;;;;;;;;;5044624;28;20061;-69
2022/08/29 07:17:49;;;;;;;3.63;1.27;;;;;;;;;;5047448;28;20071;-68
2022/08/29 07:20:18;;;;;;;2.60;1.20;;;;;;;;;;5044462;28;20048;-68
2022/08/29 07:22:50;;;;;;;4.20;1.58;;;;;;;;;;5042580;28;20067;-68
2022/08/29 07:25:19;;;;;;;2.13;1.48;;;;;;;;;;5044809;28;20049;-70
2022/08/29 07:27:48;;;;;;;1.38;0.80;;;;;;;;;;5044083;28;20045;-69
2022/08/29 07:30:20;;;;;;;1.38;0.80;;;;;;;;;;5044706;28;20072;-68
2022/08/29 07:32:51;;;;;;;2.42;0.93;;;;;;;;;;5046172;28;20040;-68
2022/08/29 07:35:20;;;;;;;2.67;1.52;;;;;;;;;;5045216;28;20056;-68
2022/08/29 07:37:57;;;;;;;1.10;0.63;;;;;;;;;;5043125;28;20124;-68
2022/08/29 07:40:26;;;;;;;1.38;0.70;;;;;;;;;;5045881;28;20450;-70
2022/08/29 07:42:55;;;;;;;0.70;0.65;;;;;;;;;;5043459;28;20556;-68
2022/08/29 07:45:24;;;;;;;5.70;1.65;;;;;;;;;;5046918;28;20044;-68
2022/08/29 07:47:54;;;;;;;2.22;1.65;;;;;;;;;;5046972;28;20439;-68
2022/08/29 07:50:23;;;;;;;1.67;1.30;;;;;;;;;;5048129;28;20045;-68
2022/08/29 07:52:52;;;;;;;1.10;0.82;;;;;;;;;;5044642;28;20049;-68
2022/08/29 07:55:21;;;;;;;3.63;1.33;;;;;;;;;;5035933;28;20052;-69
2022/08/29 07:57:51;;;;;;;1.63;1.08;;;;;;;;;;5047658;28;20079;-69
2022/08/29 08:00:20;;;;;;;2.03;1.13;;;;;;;;;;5047077;28;20048;-70
2022/08/29 08:02:50;;;;;;;1.98;1.17;;;;;;;;;;5043946;28;20080;-70
2022/08/29 08:05:21;;;;;;;3.47;1.13;;;;;;;;;;5046217;28;20532;-69
2022/08/29 08:07:50;;;;;;;2.85;1.30;;;;;;;;;;5045227;28;20055;-69
2022/08/29 08:10:23;;;;;;;2.65;1.50;;;;;;;;;;5050168;28;20045;-69
2022/08/29 08:12:52;;;;;;;2.00;1.00;;;;;;;;;;5045375;28;20045;-69
2022/08/29 08:15:21;;;;;;;2.58;1.35;;;;;;;;;;5047869;28;20177;-69
2022/08/29 08:17:51;;;;;;;1.55;1.17;;;;;;;;;;5046611;28;20366;-69
2022/08/29 08:20:21;;;;;;;2.35;1.08;;;;;;;;;;5046625;28;20544;-71
2022/08/29 08:22:50;;;;;;;2.20;1.23;;;;;;;;;;5047224;28;20471;-70
2022/08/29 08:25:18;;;;;;;1.38;0.90;;;;;;;;;;5048861;28;20059;-73
2022/08/29 08:27:52;;;;;;;3.53;1.77;;;;;;;;;;5040023;28;20051;-70
2022/08/29 08:30:21;;;;;;;3.97;1.35;;;;;;;;;;5045266;28;20045;-71
2022/08/29 08:32:53;;;;;;;2.25;0.95;;;;;;;;;;5045789;28;20053;-70
2022/08/29 08:35:24;;;;;;;2.03;1.02;;;;;;;;;;5039061;28;20052;-70
2022/08/29 08:37:53;;;;;;;4.75;1.80;;;;;;;;;;5043249;28;20041;-70
2022/08/29 08:40:25;;;;;;;3.28;1.10;;;;;;;;;;5044575;28;20440;-69
2022/08/29 08:42:59;;;;;;;2.33;1.15;;;;;;;;;;5044073;28;20102;-70
2022/08/29 08:45:30;;;;;;;1.90;1.52;;;;;;;;;;5037822;28;20058;-70
2022/08/29 08:48:03;;;;;;;2.42;1.13;;;;;;;;;;5042198;28;20571;-70
2022/08/29 08:50:37;;;;;;;2.10;1.45;;;;;;;;;;5043792;28;20448;-70
2022/08/29 08:53:08;;;;;;;1.65;1.08;;;;;;;;;;5039074;28;20045;-70
2022/08/29 08:55:40;;;;;;;2.75;1.40;;;;;;;;;;5043581;28;20076;-70
2022/08/29 08:58:12;;;;;;;3.50;1.20;;;;;;;;;;5045893;28;20053;-71
2022/08/29 09:00:44;;;;;;;6.80;1.15;;;;;;;;;;5042825;28;20136;-71
2022/08/29 09:03:23;;;;;;;1.13;0.80;;;;;;;;;;5044386;28;20099;-71
2022/08/29 09:06:02;;;;;;;3.05;2.03;;;;;;;;;;5046241;28;20152;-70
2022/08/29 09:08:40;;;;;;;1.20;0.95;;;;;;;;;;5041013;28;20059;-70
2022/08/29 09:11:14;;;;;;;1.83;1.35;;;;;;;;;;5044704;28;20045;-70
2022/08/29 09:13:46;;;;;;;3.05;1.77;;;;;;;;;;5042071;28;20550;-69
2022/08/29 09:16:19;;;;;;;2.20;1.30;;;;;;;;;;5045147;28;20079;-69
2022/08/29 09:18:52;;;;;;;2.13;1.50;;;;;;;;;;5043540;28;20071;-69
2022/08/29 09:21:23;;;;;;;4.30;1.80;;;;;;;;;;5042328;28;20065;-70
2022/08/29 09:24:12;;;;;;;2.65;1.42;;;;;;;;;;5045476;28;20432;-69
2022/08/29 09:26:40;;;;;;;2.15;1.10;;;;;;;;;;5044440;28;20520;-69
2022/08/29 09:29:19;;;;;;;2.95;1.65;;;;;;;;;;5044403;28;20037;-70
2022/08/29 09:32:06;;;;;;;2.03;1.23;;;;;;;;;;5044445;28;20187;-69
2022/08/29 09:34:45;;;;;;;3.05;1.25;;;;;;;;;;5042299;28;20056;-69
2022/08/29 09:37:38;;;;;;;1.63;1.25;;;;;;;;;;5043891;28;20522;-69
2022/08/29 09:40:09;;;;;;;2.35;1.33;;;;;;;;;;5037162;28;20049;-70
2022/08/29 09:42:40;;;;;;;2.13;1.33;;;;;;;;;;5038927;28;20044;-69
2022/08/29 09:45:16;;;;;;;3.38;0.93;;;;;;;;;;5041603;28;20060;-70
2022/08/29 09:47:45;;;;;;;2.38;1.33;;;;;;;;;;5044600;28;20154;-70
2022/08/29 09:50:23;;;;;;;2.15;1.38;;;;;;;;;;5042206;28;20403;-70
2022/08/29 09:52:54;;;;;;;2.28;1.35;;;;;;;;;;5046661;28;20372;-69
2022/08/29 09:55:25;;;;;;;1.60;1.08;;;;;;;;;;5041709;28;20055;-69
2022/08/29 09:57:56;;;;;;;2.47;1.45;;;;;;;;;;5044786;28;20067;-69
2022/08/29 10:00:26;;;;;;;2.17;0.93;;;;;;;;;;5040208;28;20095;-69
2022/08/29 10:02:55;;;;;;;2.80;1.50;;;;;;;;;;5044963;28;20045;-69
2022/08/29 10:05:35;;;;;;;3.00;1.63;;;;;;;;;;5044598;28;20753;-69
2022/08/29 10:08:06;;;;;;;3.40;1.90;;;;;;;;;;5014107;28;20056;-70
2022/08/29 10:10:36;;;;;;;3.08;1.70;;;;;;;;;;5043904;28;20048;-70
2022/08/29 10:13:10;;;;;;;2.05;1.23;;;;;;;;;;5046463;28;20049;-69
2022/08/29 10:15:41;;;;;;;1.83;1.30;;;;;;;;;;5042672;28;20156;-70
2022/08/29 10:18:23;;;;;;;3.15;1.65;;;;;;;;;;5040229;28;20037;-71
2022/08/29 10:20:57;;;;;;;3.50;1.45;;;;;;;;;;5043366;28;20393;-70
2022/08/29 10:23:33;;;;;;;1.33;1.20;;;;;;;;;;5040856;28;20057;-69
2022/08/29 10:26:06;;;;;;;2.80;1.65;;;;;;;;;;5045029;28;20530;-70
2022/08/29 10:28:38;;;;;;;3.08;1.35;;;;;;;;;;5045799;28;20056;-70
2022/08/29 10:31:09;;;;;;;2.47;1.58;;;;;;;;;;5041933;28;20060;-69
2022/08/29 10:34:05;;;;;;;2.00;1.35;;;;;;;;;;5044715;28;20056;-70
2022/08/29 10:36:36;;;;;;;2.97;1.83;;;;;;;;;;5009924;28;20523;-70
2022/08/29 10:39:12;;;;;;;3.05;1.88;;;;;;;;;;5024910;28;20107;-70
2022/08/29 10:41:49;;;;;;;3.00;1.60;;;;;;;;;;5015928;28;20085;-73
2022/08/29 10:44:25;;;;;;;5.55;2.25;;;;;;;;;;5021264;28;20045;-71
2022/08/29 10:47:23;;;;;;;3.95;2.33;;;;;;;;;;5022166;28;20049;-70
2022/08/29 10:49:59;;;;;;;2.88;1.27;;;;;;;;;;4984093;28;20161;-70
2022/08/29 10:52:31;;;;;;;1.50;1.15;;;;;;;;;;5017971;28;20045;-70
2022/08/29 10:55:05;;;;;;;2.15;1.42;;;;;;;;;;5022396;28;20098;-70
2022/08/29 10:57:52;;;;;;;2.50;1.67;;;;;;;;;;5025540;28;20312;-70
2022/08/29 11:00:21;;;;;;;2.72;1.48;;;;;;;;;;5020219;28;20084;-70
2022/08/29 11:02:52;;;;;;;3.03;1.55;;;;;;;;;;5029002;28;20684;-71
2022/08/29 11:05:24;;;;;;;4.65;1.58;;;;;;;;;;5026275;28;20049;-70
2022/08/29 11:07:55;;;;;;;1.48;1.23;;;;;;;;;;5050253;28;20045;-71
2022/08/29 11:10:25;;;;;;;2.63;1.80;;;;;;;;;;5045475;28;20052;-70
2022/08/29 11:12:56;;;;;;;6.57;1.35;;;;;;;;;;5049342;28;20049;-70
2022/08/29 11:15:27;;;;;;;2.55;1.75;;;;;;;;;;5050983;28;20041;-70
2022/08/29 11:17:59;;;;;;;4.43;1.30;;;;;;;;;;5051831;28;20098;-71
2022/08/29 11:20:30;;;;;;;2.47;1.30;;;;;;;;;;5047698;28;20467;-71
2022/08/29 11:23:02;;;;;;;2.22;1.20;;;;;;;;;;5052788;28;20558;-71
2022/08/29 11:25:33;;;;;;;4.20;1.27;;;;;;;;;;5048611;28;20508;-70
2022/08/29 11:28:08;;;;;;;2.50;1.35;;;;;;;;;;5049986;28;20115;-71
2022/08/29 11:30:39;;;;;;;3.08;1.58;;;;;;;;;;5048751;28;20045;-70
2022/08/29 11:33:20;;;;;;;2.60;1.30;;;;;;;;;;5050370;28;20049;-70
2022/08/29 11:35:56;;;;;;;2.67;1.50;;;;;;;;;;5047937;28;20056;-72
2022/08/29 11:38:46;;;;;;;1.25;1.10;;;;;;;;;;5043560;28;20045;-72
2022/08/29 11:41:30;;;;;;;1.80;1.40;;;;;;;;;;5052538;28;20103;-71
2022/08/29 11:44:07;;;;;;;1.63;1.03;;;;;;;;;;5048603;28;20450;-72
2022/08/29 11:46:38;;;;;;;1.45;1.35;;;;;;;;;;5051319;28;20439;-71
2022/08/29 11:49:28;;;;;;;2.20;1.48;;;;;;;;;;5048804;28;20476;-70
2022/08/29 11:51:58;;;;;;;1.45;1.08;;;;;;;;;;5044742;28;20045;-70
2022/08/29 11:54:55;;;;;;;3.63;1.30;;;;;;;;;;5048778;28;20132;-70
2022/08/29 11:57:46;;;;;;;1.95;1.40;;;;;;;;;;4993168;28;20113;-72
2022/08/29 12:00:36;;;;;;;3.08;1.20;;;;;;;;;;5029708;28;20049;-71
2022/08/29 12:03:25;;;;;;;1.15;0.80;;;;;;;;;;5027775;28;20108;-70
2022/08/29 12:06:01;;;;;;;1.83;0.98;;;;;;;;;;5041615;28;20137;-70
2022/08/29 12:08:37;;;;;;;1.42;1.23;;;;;;;;;;5030390;28;20049;-70
2022/08/29 12:11:09;;;;;;;2.20;1.38;;;;;;;;;;5036611;28;20095;-70
2022/08/29 12:13:57;;;;;;;1.35;1.10;;;;;;;;;;5033339;28;20107;-70
2022/08/29 12:16:28;;;;;;;2.38;1.23;;;;;;;;;;5024519;28;20057;-70
2022/08/29 12:18:58;;;;;;;1.23;0.93;;;;;;;;;;5032986;28;20130;-71
2022/08/29 12:21:48;;;;;;;2.28;1.02;;;;;;;;;;5031676;28;20535;-70
2022/08/29 12:24:32;;;;;;;2.70;1.10;;;;;;;;;;5025919;28;20045;-69
2022/08/29 12:27:06;;;;;;;3.95;1.40;;;;;;;;;;5036189;28;20135;-71
2022/08/29 12:29:48;;;;;;;2.13;1.35;;;;;;;;;;5051830;28;20053;-70
2022/08/29 12:32:33;;;;;;;1.77;1.27;;;;;;;;;;5048086;28;20049;-70
2022/08/29 12:35:21;;;;;;;1.20;0.98;;;;;;;;;;5048836;28;20073;-70
2022/08/29 12:37:59;;;;;;;2.20;1.20;;;;;;;;;;5026216;28;20552;-71
2022/08/29 12:40:55;;;;;;;2.03;1.17;;;;;;;;;;5021953;28;20562;-70
2022/08/29 12:43:33;;;;;;;1.30;1.05;;;;;;;;;;5003776;28;20501;-70
2022/08/29 12:46:14;;;;;;;2.30;1.50;;;;;;;;;;5033137;28;20390;-70
2022/08/29 12:48:51;;;;;;;1.45;1.00;;;;;;;;;;5046694;28;20072;-70
2022/08/29 12:51:36;;;;;;;2.33;1.13;;;;;;;;;;5047196;28;20152;-69
2022/08/29 12:54:05;;;;;;;3.03;1.50;;;;;;;;;;5049832;28;20107;-70
2022/08/29 12:56:34;;;;;;;2.60;1.25;;;;;;;;;;5049344;28;20508;-70
2022/08/29 12:59:04;;;;;;;2.42;1.27;;;;;;;;;;5047084;28;20045;-70
2022/08/29 13:01:36;;;;;;;1.70;1.15;;;;;;;;;;5046119;28;20140;-69
2022/08/29 13:04:13;;;;;;;1.65;1.00;;;;;;;;;;5049598;28;20131;-69
2022/08/29 13:06:52;;;;;;;2.85;1.27;;;;;;;;;;5048902;28;20063;-69
2022/08/29 13:09:34;;;;;;;1.30;0.93;;;;;;;;;;5047362;28;20852;-70
2022/08/29 13:12:13;;;;;;;2.60;1.48;;;;;;;;;;5049520;28;20051;-69
2022/08/29 13:14:53;;;;;;;2.10;1.23;;;;;;;;;;5047383;28;20088;-70
2022/08/29 13:17:22;;;;;;;1.45;1.10;;;;;;;;;;5045540;28;20499;-70
2022/08/29 13:20:10;;;;;;;1.77;1.02;;;;;;;;;;5047871;28;20057;-69
2022/08/29 13:22:40;;;;;;;2.88;1.38;;;;;;;;;;5046950;28;20320;-70
2022/08/29 13:25:15;;;;;;;2.15;1.25;;;;;;;;;;5050746;28;20159;-70
2022/08/29 13:28:01;;;;;;;2.10;1.42;;;;;;;;;;5048307;28;20193;-70
2022/08/29 13:30:35;;;;;;;1.95;1.35;;;;;;;;;;5044554;28;20049;-69
2022/08/29 13:33:28;;;;;;;1.75;1.35;;;;;;;;;;5049637;28;20102;-70
2022/08/29 13:36:18;;;;;;;1.85;1.30;;;;;;;;;;5040036;28;20044;-70
2022/08/29 13:39:08;;;;;;;2.55;1.45;;;;;;;;;;5047981;28;20492;-70
2022/08/29 13:41:37;;;;;;;3.75;1.55;;;;;;;;;;5047124;28;20044;-70
2022/08/29 13:44:06;;;;;;;2.00;1.20;;;;;;;;;;5048915;28;20100;-70
2022/08/29 13:46:35;;;;;;;2.38;1.38;;;;;;;;;;5047273;28;20061;-70
2022/08/29 13:49:04;;;;;;;3.58;1.58;;;;;;;;;;5049070;28;20088;-69
2022/08/29 13:51:33;;;;;;;6.07;1.17;;;;;;;;;;5047320;28;20073;-69
2022/08/29 13:54:03;;;;;;;2.95;1.50;;;;;;;;;;5048699;28;20081;-70
2022/08/29 13:56:33;;;;;;;2.92;1.38;;;;;;;;;;5044469;28;20053;-69
2022/08/29 13:59:02;;;;;;;2.72;1.40;;;;;;;;;;5048262;28;20057;-70
2022/08/29 14:01:31;;;;;;;1.35;1.02;;;;;;;;;;5040374;28;20111;-70
2022/08/29 14:04:20;;;;;;;2.15;1.30;;;;;;;;;;5049755;28;20084;-69
2022/08/29 14:07:05;;;;;;;;;;;;;;;;;;5046535;28;20056;-69
2022/08/29 14:09:37;;;;;;;3.85;1.83;;;;;;;;;;5048190;28;20015;-69
2022/08/29 14:12:08;;;;;;;1.83;1.55;;;;;;;;;;5047430;28;20049;-69
2022/08/29 14:14:40;;;;;;;2.20;1.40;;;;;;;;;;5047648;28;20056;-70
2022/08/29 14:17:09;;;;;;;2.50;1.20;;;;;;;;;;5046992;28;20048;-70
2022/08/29 14:19:46;;;;;;;3.13;1.17;;;;;;;;;;5047150;28;20045;-70
2022/08/29 14:22:14;;;;;;;1.20;0.90;;;;;;;;;;5045868;28;20136;-70
2022/08/29 14:24:51;;;;;;;2.50;1.45;;;;;;;;;;5047840;28;20048;-70
2022/08/29 14:27:21;;;;;;;3.50;1.10;;;;;;;;;;5045740;28;20578;-71
2022/08/29 14:29:50;;;;;;;3.58;1.42;;;;;;;;;;5043534;28;20550;-70
2022/08/29 14:32:19;;;;;;;2.00;1.17;;;;;;;;;;5044237;28;20520;-70
2022/08/29 14:34:50;;;;;;;3.13;1.60;;;;;;;;;;5048847;28;20056;-70
2022/08/29 14:37:21;;;;;;;2.08;1.33;;;;;;;;;;5047464;28;20096;-70
2022/08/29 14:39:51;;;;;;;1.92;1.27;;;;;;;;;;5044561;28;20099;-70
2022/08/29 14:42:20;;;;;;;2.03;1.40;;;;;;;;;;5046739;28;20045;-70
2022/08/29 14:44:50;;;;;;;2.75;1.17;;;;;;;;;;5050288;28;20393;-71
2022/08/29 14:47:19;;;;;;;2.55;1.45;;;;;;;;;;5049431;28;20049;-69
2022/08/29 14:49:47;;;;;;;2.42;1.70;;;;;;;;;;5046678;28;20052;-68
2022/08/29 14:52:16;;;;;;;2.38;1.42;;;;;;;;;;5047117;28;20048;-70
2022/08/29 14:54:44;;;;;;;2.25;1.23;;;;;;;;;;5052471;28;20041;-69
2022/08/29 14:57:14;;;;;;;1.48;1.00;;;;;;;;;;5047296;28;20734;-69
2022/08/29 14:59:43;;;;;;;2.45;1.55;;;;;;;;;;5049069;28;20114;-70
2022/08/29 15:02:12;;;;;;;2.20;1.40;;;;;;;;;;5046680;28;20508;-70
2022/08/29 15:04:41;;;;;;;1.60;1.48;;;;;;;;;;5050522;28;20049;-69
2022/08/29 15:07:12;;;;;;;2.95;1.55;;;;;;;;;;5052196;28;20044;-69
2022/08/29 15:09:42;;;;;;;2.13;1.75;;;;;;;;;;5050165;28;20052;-70
2022/08/29 15:12:11;;;;;;;2.70;1.45;;;;;;;;;;5051233;28;20059;-69
2022/08/29 15:14:41;;;;;;;4.22;1.70;;;;;;;;;;5053384;28;20057;-69